sensor_id;sensor_type;location;lat;lon;timestamp;temperature;humidity
9723;DHT22;4900;49.306;8.500;2023-05-31T00:01:08;18.76;40.29
9723;DHT22;4900;49.306;8.500;2023-05-31T00:03:33;18.72;40.46
9723;DHT22;4900;49.306;8.500;2023-05-31T00:06:00;18.67;40.68
9723;DHT22;4900;49.306;8.500;2023-05-31T00:08:26;18.61;40.95
9723;DHT22;4900;49.306;8.500;2023-05-31T00:10:51;18.57;41.14
9723;DHT22;4900;49.306;8.500;2023-05-31T00:13:17;18.53;41.14
9723;DHT22;4900;49.306;8.500;2023-05-31T00:15:42;18.50;41.12
9723;DHT22;4900;49.306;8.500;2023-05-31T00:18:07;18.46;41.29
9723;DHT22;4900;49.306;8.500;2023-05-31T00:20:33;18.41;41.05
9723;DHT22;4900;49.306;8.500;2023-05-31T00:22:58;18.37;41.07
9723;DHT22;4900;49.306;8.500;2023-05-31T00:25:24;18.39;41.25
9723;DHT22;4900;49.306;8.500;2023-05-31T00:27:49;18.33;41.46
9723;DHT22;4900;49.306;8.500;2023-05-31T00:30:15;18.29;41.86
9723;DHT22;4900;49.306;8.500;2023-05-31T00:32:40;18.26;42.16
9723;DHT22;4900;49.306;8.500;2023-05-31T00:35:06;18.23;41.98
9723;DHT22;4900;49.306;8.500;2023-05-31T00:37:32;18.14;42.43
9723;DHT22;4900;49.306;8.500;2023-05-31T00:40:04;18.13;42.56
9723;DHT22;4900;49.306;8.500;2023-05-31T00:42:32;18.13;42.37
9723;DHT22;4900;49.306;8.500;2023-05-31T00:44:57;18.10;42.27
9723;DHT22;4900;49.306;8.500;2023-05-31T00:47:23;18.10;42.36
9723;DHT22;4900;49.306;8.500;2023-05-31T00:49:50;18.09;42.60
9723;DHT22;4900;49.306;8.500;2023-05-31T00:52:15;18.06;42.59
9723;DHT22;4900;49.306;8.500;2023-05-31T00:54:41;18.02;42.92
9723;DHT22;4900;49.306;8.500;2023-05-31T00:57:06;17.95;43.27
9723;DHT22;4900;49.306;8.500;2023-05-31T00:59:32;17.98;43.25
9723;DHT22;4900;49.306;8.500;2023-05-31T01:01:59;17.95;43.49
9723;DHT22;4900;49.306;8.500;2023-05-31T01:04:25;17.88;43.89
9723;DHT22;4900;49.306;8.500;2023-05-31T01:06:50;17.86;44.11
9723;DHT22;4900;49.306;8.500;2023-05-31T01:09:17;17.85;44.41
9723;DHT22;4900;49.306;8.500;2023-05-31T01:12:02;17.77;44.59
9723;DHT22;4900;49.306;8.500;2023-05-31T01:19:59;17.64;44.45
9723;DHT22;4900;49.306;8.500;2023-05-31T01:25:22;17.57;44.67
9723;DHT22;4900;49.306;8.500;2023-05-31T01:27:51;17.53;44.72
9723;DHT22;4900;49.306;8.500;2023-05-31T01:30:19;17.49;44.88
9723;DHT22;4900;49.306;8.500;2023-05-31T01:32:46;17.44;45.01
9723;DHT22;4900;49.306;8.500;2023-05-31T01:35:13;17.41;45.46
9723;DHT22;4900;49.306;8.500;2023-05-31T01:37:39;17.40;45.36
9723;DHT22;4900;49.306;8.500;2023-05-31T01:40:05;17.36;45.24
9723;DHT22;4900;49.306;8.500;2023-05-31T01:42:32;17.30;45.35
9723;DHT22;4900;49.306;8.500;2023-05-31T01:44:58;17.27;45.30
9723;DHT22;4900;49.306;8.500;2023-05-31T01:47:24;17.27;45.16
9723;DHT22;4900;49.306;8.500;2023-05-31T01:49:50;17.23;45.15
9723;DHT22;4900;49.306;8.500;2023-05-31T01:52:17;17.23;45.01
9723;DHT22;4900;49.306;8.500;2023-05-31T01:54:44;17.22;45.14
9723;DHT22;4900;49.306;8.500;2023-05-31T01:57:10;17.19;45.10
9723;DHT22;4900;49.306;8.500;2023-05-31T01:59:37;17.19;45.21
9723;DHT22;4900;49.306;8.500;2023-05-31T02:02:04;17.13;45.30
9723;DHT22;4900;49.306;8.500;2023-05-31T02:04:31;17.08;44.97
9723;DHT22;4900;49.306;8.500;2023-05-31T02:06:56;17.08;44.82
9723;DHT22;4900;49.306;8.500;2023-05-31T02:09:23;17.06;44.92
9723;DHT22;4900;49.306;8.500;2023-05-31T02:11:49;17.01;45.10
9723;DHT22;4900;49.306;8.500;2023-05-31T02:14:14;16.99;45.01
9723;DHT22;4900;49.306;8.500;2023-05-31T02:16:40;16.98;45.01
9723;DHT22;4900;49.306;8.500;2023-05-31T02:19:06;16.95;45.06
9723;DHT22;4900;49.306;8.500;2023-05-31T02:21:34;16.94;45.22
9723;DHT22;4900;49.306;8.500;2023-05-31T02:24:03;16.98;45.36
9723;DHT22;4900;49.306;8.500;2023-05-31T02:26:28;16.94;45.98
9723;DHT22;4900;49.306;8.500;2023-05-31T02:28:53;16.94;46.22
9723;DHT22;4900;49.306;8.500;2023-05-31T02:31:19;16.94;46.26
9723;DHT22;4900;49.306;8.500;2023-05-31T02:33:45;16.89;46.50
9723;DHT22;4900;49.306;8.500;2023-05-31T02:36:11;16.89;46.86
9723;DHT22;4900;49.306;8.500;2023-05-31T02:38:37;16.81;47.31
9723;DHT22;4900;49.306;8.500;2023-05-31T02:41:02;16.81;47.37
9723;DHT22;4900;49.306;8.500;2023-05-31T02:43:28;16.78;47.54
9723;DHT22;4900;49.306;8.500;2023-05-31T02:45:53;16.74;48.09
9723;DHT22;4900;49.306;8.500;2023-05-31T02:48:18;16.71;48.26
9723;DHT22;4900;49.306;8.500;2023-05-31T02:50:44;16.68;48.66
9723;DHT22;4900;49.306;8.500;2023-05-31T02:53:09;16.64;48.17
9723;DHT22;4900;49.306;8.500;2023-05-31T02:55:35;16.65;47.65
9723;DHT22;4900;49.306;8.500;2023-05-31T02:58:02;16.67;48.15
9723;DHT22;4900;49.306;8.500;2023-05-31T03:00:28;16.69;48.35
9723;DHT22;4900;49.306;8.500;2023-05-31T03:02:54;16.68;48.75
9723;DHT22;4900;49.306;8.500;2023-05-31T03:05:20;16.67;48.90
9723;DHT22;4900;49.306;8.500;2023-05-31T03:07:46;16.65;49.21
9723;DHT22;4900;49.306;8.500;2023-05-31T03:10:12;16.60;49.25
9723;DHT22;4900;49.306;8.500;2023-05-31T03:12:37;16.61;49.46
9723;DHT22;4900;49.306;8.500;2023-05-31T03:15:03;16.60;49.45
9723;DHT22;4900;49.306;8.500;2023-05-31T03:17:29;16.57;49.88
9723;DHT22;4900;49.306;8.500;2023-05-31T03:19:55;16.51;49.80
9723;DHT22;4900;49.306;8.500;2023-05-31T03:22:21;16.44;50.43
9723;DHT22;4900;49.306;8.500;2023-05-31T03:24:48;16.40;50.82
9723;DHT22;4900;49.306;8.500;2023-05-31T03:27:14;16.37;50.86
9723;DHT22;4900;49.306;8.500;2023-05-31T03:29:41;16.36;51.01
9723;DHT22;4900;49.306;8.500;2023-05-31T03:32:07;16.36;51.02
9723;DHT22;4900;49.306;8.500;2023-05-31T03:34:32;16.33;51.30
9723;DHT22;4900;49.306;8.500;2023-05-31T03:36:59;16.32;51.79
9723;DHT22;4900;49.306;8.500;2023-05-31T03:39:24;16.28;52.32
9723;DHT22;4900;49.306;8.500;2023-05-31T03:41:50;16.19;52.86
9723;DHT22;4900;49.306;8.500;2023-05-31T03:44:15;16.21;52.66
9723;DHT22;4900;49.306;8.500;2023-05-31T03:46:40;16.19;52.94
9723;DHT22;4900;49.306;8.500;2023-05-31T03:49:06;16.15;52.93
9723;DHT22;4900;49.306;8.500;2023-05-31T03:51:32;16.15;53.03
9723;DHT22;4900;49.306;8.500;2023-05-31T03:53:58;16.16;52.97
9723;DHT22;4900;49.306;8.500;2023-05-31T03:56:23;16.16;53.09
9723;DHT22;4900;49.306;8.500;2023-05-31T03:58:49;16.15;53.18
9723;DHT22;4900;49.306;8.500;2023-05-31T04:01:15;16.15;53.33
9723;DHT22;4900;49.306;8.500;2023-05-31T04:03:43;16.15;53.34
9723;DHT22;4900;49.306;8.500;2023-05-31T04:06:09;16.16;53.25
9723;DHT22;4900;49.306;8.500;2023-05-31T04:08:36;16.12;53.91
9723;DHT22;4900;49.306;8.500;2023-05-31T04:11:01;16.09;54.39
9723;DHT22;4900;49.306;8.500;2023-05-31T04:13:27;16.08;54.76
9723;DHT22;4900;49.306;8.500;2023-05-31T04:15:53;16.09;54.84
9723;DHT22;4900;49.306;8.500;2023-05-31T04:18:19;16.08;55.08
9723;DHT22;4900;49.306;8.500;2023-05-31T04:20:44;16.08;55.36
9723;DHT22;4900;49.306;8.500;2023-05-31T04:23:10;16.09;55.51
9723;DHT22;4900;49.306;8.500;2023-05-31T04:25:35;16.11;55.51
9723;DHT22;4900;49.306;8.500;2023-05-31T04:28:00;16.09;55.49
9723;DHT22;4900;49.306;8.500;2023-05-31T04:30:27;16.11;56.03
9723;DHT22;4900;49.306;8.500;2023-05-31T04:32:52;16.13;56.09
9723;DHT22;4900;49.306;8.500;2023-05-31T04:35:21;16.16;56.14
9723;DHT22;4900;49.306;8.500;2023-05-31T04:37:47;16.21;56.23
9723;DHT22;4900;49.306;8.500;2023-05-31T04:40:17;16.23;56.33
9723;DHT22;4900;49.306;8.500;2023-05-31T04:42:42;16.28;56.37
9723;DHT22;4900;49.306;8.500;2023-05-31T04:45:08;16.28;56.28
9723;DHT22;4900;49.306;8.500;2023-05-31T04:47:34;16.34;56.14
9723;DHT22;4900;49.306;8.500;2023-05-31T04:49:59;16.39;56.25
9723;DHT22;4900;49.306;8.500;2023-05-31T04:52:26;16.39;56.21
9723;DHT22;4900;49.306;8.500;2023-05-31T04:54:54;16.46;56.26
9723;DHT22;4900;49.306;8.500;2023-05-31T04:57:20;16.49;56.35
9723;DHT22;4900;49.306;8.500;2023-05-31T04:59:46;16.53;56.18
9723;DHT22;4900;49.306;8.500;2023-05-31T05:02:11;16.58;56.26
9723;DHT22;4900;49.306;8.500;2023-05-31T05:04:37;16.65;56.14
9723;DHT22;4900;49.306;8.500;2023-05-31T05:07:02;16.71;55.93
9723;DHT22;4900;49.306;8.500;2023-05-31T05:09:28;16.75;55.58
9723;DHT22;4900;49.306;8.500;2023-05-31T05:11:53;16.74;55.88
9723;DHT22;4900;49.306;8.500;2023-05-31T05:14:19;16.79;55.86
9723;DHT22;4900;49.306;8.500;2023-05-31T05:16:45;16.85;55.68
9723;DHT22;4900;49.306;8.500;2023-05-31T05:19:11;16.85;55.95
9723;DHT22;4900;49.306;8.500;2023-05-31T05:21:36;16.88;56.31
9723;DHT22;4900;49.306;8.500;2023-05-31T05:24:03;16.89;56.64
9723;DHT22;4900;49.306;8.500;2023-05-31T05:26:29;16.94;56.75
9723;DHT22;4900;49.306;8.500;2023-05-31T05:28:55;16.98;56.64
9723;DHT22;4900;49.306;8.500;2023-05-31T05:31:20;17.09;56.45
9723;DHT22;4900;49.306;8.500;2023-05-31T05:33:46;17.12;56.60
9723;DHT22;4900;49.306;8.500;2023-05-31T05:36:11;17.20;56.38
9723;DHT22;4900;49.306;8.500;2023-05-31T05:38:36;17.24;56.14
9723;DHT22;4900;49.306;8.500;2023-05-31T05:41:02;17.34;55.80
9723;DHT22;4900;49.306;8.500;2023-05-31T05:43:27;17.43;55.66
9723;DHT22;4900;49.306;8.500;2023-05-31T05:45:55;17.53;55.47
9723;DHT22;4900;49.306;8.500;2023-05-31T05:48:20;17.64;55.32
9723;DHT22;4900;49.306;8.500;2023-05-31T05:50:46;17.77;54.98
9723;DHT22;4900;49.306;8.500;2023-05-31T05:53:11;17.88;54.54
9723;DHT22;4900;49.306;8.500;2023-05-31T05:55:37;18.14;53.71
9723;DHT22;4900;49.306;8.500;2023-05-31T05:58:03;18.71;52.41
9723;DHT22;4900;49.306;8.500;2023-05-31T06:00:28;19.36;50.83
9723;DHT22;4900;49.306;8.500;2023-05-31T06:02:54;19.98;49.04
9723;DHT22;4900;49.306;8.500;2023-05-31T06:05:19;20.59;47.27
9723;DHT22;4900;49.306;8.500;2023-05-31T06:07:51;21.23;45.74
9723;DHT22;4900;49.306;8.500;2023-05-31T06:10:17;21.75;44.94
9723;DHT22;4900;49.306;8.500;2023-05-31T06:12:42;22.19;43.65
9723;DHT22;4900;49.306;8.500;2023-05-31T06:15:08;22.72;42.51
9723;DHT22;4900;49.306;8.500;2023-05-31T06:17:33;23.22;41.16
9723;DHT22;4900;49.306;8.500;2023-05-31T06:19:59;23.74;40.08
9723;DHT22;4900;49.306;8.500;2023-05-31T06:22:25;24.21;39.00
9723;DHT22;4900;49.306;8.500;2023-05-31T06:24:51;24.62;38.33
9723;DHT22;4900;49.306;8.500;2023-05-31T06:27:16;24.90;37.40
9723;DHT22;4900;49.306;8.500;2023-05-31T06:29:42;25.20;36.82
9723;DHT22;4900;49.306;8.500;2023-05-31T06:32:07;25.61;35.78
9723;DHT22;4900;49.306;8.500;2023-05-31T06:34:33;26.13;35.35
9723;DHT22;4900;49.306;8.500;2023-05-31T06:36:58;26.39;34.79
9723;DHT22;4900;49.306;8.500;2023-05-31T06:39:25;26.85;34.28
9723;DHT22;4900;49.306;8.500;2023-05-31T06:41:51;27.12;34.11
9723;DHT22;4900;49.306;8.500;2023-05-31T06:44:16;27.51;33.24
9723;DHT22;4900;49.306;8.500;2023-05-31T06:46:42;27.83;32.81
9723;DHT22;4900;49.306;8.500;2023-05-31T06:49:07;28.14;31.73
9723;DHT22;4900;49.306;8.500;2023-05-31T06:51:32;28.29;31.36
9723;DHT22;4900;49.306;8.500;2023-05-31T06:53:59;28.71;30.32
9723;DHT22;4900;49.306;8.500;2023-05-31T06:56:25;29.06;30.23
9723;DHT22;4900;49.306;8.500;2023-05-31T06:58:52;29.34;29.39
9723;DHT22;4900;49.306;8.500;2023-05-31T07:01:18;29.64;29.17
9723;DHT22;4900;49.306;8.500;2023-05-31T07:03:43;29.88;28.96
9723;DHT22;4900;49.306;8.500;2023-05-31T07:06:08;30.20;28.76
9723;DHT22;4900;49.306;8.500;2023-05-31T07:08:34;30.20;28.73
9723;DHT22;4900;49.306;8.500;2023-05-31T07:11:00;30.55;28.36
9723;DHT22;4900;49.306;8.500;2023-05-31T07:13:25;30.74;27.64
9723;DHT22;4900;49.306;8.500;2023-05-31T07:15:51;30.86;27.31
9723;DHT22;4900;49.306;8.500;2023-05-31T07:18:16;31.34;26.87
9723;DHT22;4900;49.306;8.500;2023-05-31T07:20:42;31.37;26.76
9723;DHT22;4900;49.306;8.500;2023-05-31T07:23:08;31.57;26.35
9723;DHT22;4900;49.306;8.500;2023-05-31T07:25:34;31.90;26.16
9723;DHT22;4900;49.306;8.500;2023-05-31T07:27:59;32.09;25.88
9723;DHT22;4900;49.306;8.500;2023-05-31T07:30:25;32.17;25.95
9723;DHT22;4900;49.306;8.500;2023-05-31T07:32:51;32.60;25.53
9723;DHT22;4900;49.306;8.500;2023-05-31T07:35:16;32.68;25.45
9723;DHT22;4900;49.306;8.500;2023-05-31T07:37:41;32.89;24.83
9723;DHT22;4900;49.306;8.500;2023-05-31T07:40:07;32.96;24.25
9723;DHT22;4900;49.306;8.500;2023-05-31T07:42:33;33.31;24.19
9723;DHT22;4900;49.306;8.500;2023-05-31T07:44:59;33.31;23.89
9723;DHT22;4900;49.306;8.500;2023-05-31T07:47:24;33.53;23.56
9723;DHT22;4900;49.306;8.500;2023-05-31T07:49:50;33.97;23.40
9723;DHT22;4900;49.306;8.500;2023-05-31T07:52:17;34.06;23.26
9723;DHT22;4900;49.306;8.500;2023-05-31T07:54:47;33.77;22.79
9723;DHT22;4900;49.306;8.500;2023-05-31T07:57:13;34.09;22.86
9723;DHT22;4900;49.306;8.500;2023-05-31T07:59:39;34.22;22.57
9723;DHT22;4900;49.306;8.500;2023-05-31T08:02:05;34.61;21.94
9723;DHT22;4900;49.306;8.500;2023-05-31T08:04:31;34.80;22.05
9723;DHT22;4900;49.306;8.500;2023-05-31T08:06:56;34.73;21.78
9723;DHT22;4900;49.306;8.500;2023-05-31T08:09:22;35.08;21.30
9723;DHT22;4900;49.306;8.500;2023-05-31T08:11:48;34.91;21.29
9723;DHT22;4900;49.306;8.500;2023-05-31T08:14:14;35.18;21.10
9723;DHT22;4900;49.306;8.500;2023-05-31T08:16:39;35.41;21.08
9723;DHT22;4900;49.306;8.500;2023-05-31T08:19:05;35.59;20.82
9723;DHT22;4900;49.306;8.500;2023-05-31T08:21:31;35.90;20.75
9723;DHT22;4900;49.306;8.500;2023-05-31T08:23:56;35.86;20.64
9723;DHT22;4900;49.306;8.500;2023-05-31T08:26:23;36.08;20.23
9723;DHT22;4900;49.306;8.500;2023-05-31T08:28:49;36.31;20.54
9723;DHT22;4900;49.306;8.500;2023-05-31T08:31:15;35.80;20.56
9723;DHT22;4900;49.306;8.500;2023-05-31T08:33:54;36.09;21.72
9723;DHT22;4900;49.306;8.500;2023-05-31T08:36:21;36.32;21.89
9723;DHT22;4900;49.306;8.500;2023-05-31T08:38:46;35.45;21.26
9723;DHT22;4900;49.306;8.500;2023-05-31T08:41:12;35.57;20.77
9723;DHT22;4900;49.306;8.500;2023-05-31T08:43:38;34.91;20.62
9723;DHT22;4900;49.306;8.500;2023-05-31T08:46:04;34.68;20.62
9723;DHT22;4900;49.306;8.500;2023-05-31T08:48:55;34.98;20.33
9723;DHT22;4900;49.306;8.500;2023-05-31T08:51:24;34.49;20.56
9723;DHT22;4900;49.306;8.500;2023-05-31T08:53:50;34.46;20.91
9723;DHT22;4900;49.306;8.500;2023-05-31T08:56:18;34.23;21.20
9723;DHT22;4900;49.306;8.500;2023-05-31T08:58:48;34.70;21.15
9723;DHT22;4900;49.306;8.500;2023-05-31T09:01:14;35.02;21.23
9723;DHT22;4900;49.306;8.500;2023-05-31T09:03:40;34.56;20.76
9723;DHT22;4900;49.306;8.500;2023-05-31T09:06:05;34.67;20.73
9723;DHT22;4900;49.306;8.500;2023-05-31T09:08:31;35.04;20.90
9723;DHT22;4900;49.306;8.500;2023-05-31T09:11:00;35.64;21.51
9723;DHT22;4900;49.306;8.500;2023-05-31T09:13:26;36.15;21.51
9723;DHT22;4900;49.306;8.500;2023-05-31T09:15:52;36.94;21.05
9723;DHT22;4900;49.306;8.500;2023-05-31T09:18:21;37.15;20.12
9723;DHT22;4900;49.306;8.500;2023-05-31T09:20:49;37.20;19.53
9723;DHT22;4900;49.306;8.500;2023-05-31T09:23:18;37.37;19.07
9723;DHT22;4900;49.306;8.500;2023-05-31T09:25:47;37.69;19.03
9723;DHT22;4900;49.306;8.500;2023-05-31T09:28:14;37.86;19.25
9723;DHT22;4900;49.306;8.500;2023-05-31T09:30:40;38.56;19.26
9723;DHT22;4900;49.306;8.500;2023-05-31T09:33:06;38.82;19.96
9723;DHT22;4900;49.306;8.500;2023-05-31T09:35:32;38.96;19.62
9723;DHT22;4900;49.306;8.500;2023-05-31T09:38:04;39.28;19.86
9723;DHT22;4900;49.306;8.500;2023-05-31T09:40:30;39.44;19.62
9723;DHT22;4900;49.306;8.500;2023-05-31T09:42:56;39.72;19.12
9723;DHT22;4900;49.306;8.500;2023-05-31T09:45:24;39.58;19.16
9723;DHT22;4900;49.306;8.500;2023-05-31T09:47:50;39.69;18.52
9723;DHT22;4900;49.306;8.500;2023-05-31T09:50:19;39.92;18.75
9723;DHT22;4900;49.306;8.500;2023-05-31T09:52:47;39.99;18.42
9723;DHT22;4900;49.306;8.500;2023-05-31T09:55:14;40.27;18.31
9723;DHT22;4900;49.306;8.500;2023-05-31T09:57:41;40.20;17.41
9723;DHT22;4900;49.306;8.500;2023-05-31T10:00:12;40.27;17.12
9723;DHT22;4900;49.306;8.500;2023-05-31T10:02:53;40.26;16.92
9723;DHT22;4900;49.306;8.500;2023-05-31T10:05:20;40.69;16.96
9723;DHT22;4900;49.306;8.500;2023-05-31T10:07:51;40.26;16.54
9723;DHT22;4900;49.306;8.500;2023-05-31T10:10:17;40.79;16.75
9723;DHT22;4900;49.306;8.500;2023-05-31T10:12:57;41.20;17.40
9723;DHT22;4900;49.306;8.500;2023-05-31T10:15:26;41.10;16.82
9723;DHT22;4900;49.306;8.500;2023-05-31T10:18:02;41.06;16.47
9723;DHT22;4900;49.306;8.500;2023-05-31T10:20:39;41.19;16.34
9723;DHT22;4900;49.306;8.500;2023-05-31T10:23:25;41.74;16.26
9723;DHT22;4900;49.306;8.500;2023-05-31T10:28:27;42.47;16.98
9723;DHT22;4900;49.306;8.500;2023-05-31T10:30:54;42.47;16.97
9723;DHT22;4900;49.306;8.500;2023-05-31T10:33:20;42.44;16.78
9723;DHT22;4900;49.306;8.500;2023-05-31T10:35:46;42.44;16.43
9723;DHT22;4900;49.306;8.500;2023-05-31T10:38:12;42.39;16.09
9723;DHT22;4900;49.306;8.500;2023-05-31T10:41:01;42.70;16.30
9723;DHT22;4900;49.306;8.500;2023-05-31T10:46:08;42.88;16.31
9723;DHT22;4900;49.306;8.500;2023-05-31T10:48:54;43.02;16.52
9723;DHT22;4900;49.306;8.500;2023-05-31T10:51:38;43.02;15.91
9723;DHT22;4900;49.306;8.500;2023-05-31T10:54:03;43.07;16.03
9723;DHT22;4900;49.306;8.500;2023-05-31T10:56:29;43.34;16.30
9723;DHT22;4900;49.306;8.500;2023-05-31T10:58:55;43.49;16.45
9723;DHT22;4900;49.306;8.500;2023-05-31T11:01:21;43.47;15.99
9723;DHT22;4900;49.306;8.500;2023-05-31T11:03:51;43.85;16.02
9723;DHT22;4900;49.306;8.500;2023-05-31T11:06:22;43.81;16.17
9723;DHT22;4900;49.306;8.500;2023-05-31T11:09:12;43.71;15.86
9723;DHT22;4900;49.306;8.500;2023-05-31T11:14:07;43.94;16.12
9723;DHT22;4900;49.306;8.500;2023-05-31T11:26:57;43.34;15.19
9723;DHT22;4900;49.306;8.500;2023-05-31T11:29:24;43.47;15.23
9723;DHT22;4900;49.306;8.500;2023-05-31T11:34:22;44.26;15.60
9723;DHT22;4900;49.306;8.500;2023-05-31T11:36:52;44.37;15.50
9723;DHT22;4900;49.306;8.500;2023-05-31T11:39:18;44.55;15.43
9723;DHT22;4900;49.306;8.500;2023-05-31T11:41:44;44.49;15.13
9723;DHT22;4900;49.306;8.500;2023-05-31T11:44:14;44.74;15.55
9723;DHT22;4900;49.306;8.500;2023-05-31T11:46:44;44.33;15.04
9723;DHT22;4900;49.306;8.500;2023-05-31T11:49:12;44.08;15.03
9723;DHT22;4900;49.306;8.500;2023-05-31T11:51:44;43.89;15.30
9723;DHT22;4900;49.306;8.500;2023-05-31T11:54:10;44.01;15.25
9723;DHT22;4900;49.306;8.500;2023-05-31T11:56:39;43.96;15.22
9723;DHT22;4900;49.306;8.500;2023-05-31T11:59:05;44.35;15.19
9723;DHT22;4900;49.306;8.500;2023-05-31T12:01:38;44.36;15.24
9723;DHT22;4900;49.306;8.500;2023-05-31T12:04:05;44.47;15.28
9723;DHT22;4900;49.306;8.500;2023-05-31T12:06:31;44.57;15.32
9723;DHT22;4900;49.306;8.500;2023-05-31T12:08:59;44.75;15.13
9723;DHT22;4900;49.306;8.500;2023-05-31T12:11:24;44.87;14.79
9723;DHT22;4900;49.306;8.500;2023-05-31T12:13:54;44.60;15.30
9723;DHT22;4900;49.306;8.500;2023-05-31T12:16:20;45.04;15.17
9723;DHT22;4900;49.306;8.500;2023-05-31T12:18:48;44.75;14.43
9723;DHT22;4900;49.306;8.500;2023-05-31T12:21:15;44.95;14.80
9723;DHT22;4900;49.306;8.500;2023-05-31T12:23:57;45.23;14.78
9723;DHT22;4900;49.306;8.500;2023-05-31T12:26:24;45.52;14.81
9723;DHT22;4900;49.306;8.500;2023-05-31T12:28:52;45.64;14.77
9723;DHT22;4900;49.306;8.500;2023-05-31T12:31:23;45.81;14.90
9723;DHT22;4900;49.306;8.500;2023-05-31T12:36:47;45.48;13.92
9723;DHT22;4900;49.306;8.500;2023-05-31T12:39:23;45.09;13.43
9723;DHT22;4900;49.306;8.500;2023-05-31T12:41:52;45.04;13.27
9723;DHT22;4900;49.306;8.500;2023-05-31T12:44:20;44.85;13.22
9723;DHT22;4900;49.306;8.500;2023-05-31T12:46:48;44.80;13.11
9723;DHT22;4900;49.306;8.500;2023-05-31T12:49:25;45.14;12.93
9723;DHT22;4900;49.306;8.500;2023-05-31T12:52:18;45.12;13.27
9723;DHT22;4900;49.306;8.500;2023-05-31T12:54:45;45.57;13.73
9723;DHT22;4900;49.306;8.500;2023-05-31T12:57:11;45.18;13.36
9723;DHT22;4900;49.306;8.500;2023-05-31T12:59:37;45.50;13.18
9723;DHT22;4900;49.306;8.500;2023-05-31T13:02:04;45.93;12.91
9723;DHT22;4900;49.306;8.500;2023-05-31T13:04:29;45.91;13.00
9723;DHT22;4900;49.306;8.500;2023-05-31T13:06:55;46.00;12.95
9723;DHT22;4900;49.306;8.500;2023-05-31T13:09:24;46.28;12.95
9723;DHT22;4900;49.306;8.500;2023-05-31T13:11:50;45.98;13.02
9723;DHT22;4900;49.306;8.500;2023-05-31T13:14:18;46.21;12.96
9723;DHT22;4900;49.306;8.500;2023-05-31T13:16:44;46.28;13.13
9723;DHT22;4900;49.306;8.500;2023-05-31T13:19:10;46.13;13.11
9723;DHT22;4900;49.306;8.500;2023-05-31T13:21:35;46.04;13.15
9723;DHT22;4900;49.306;8.500;2023-05-31T13:24:02;46.41;13.39
9723;DHT22;4900;49.306;8.500;2023-05-31T13:26:28;46.43;13.71
9723;DHT22;4900;49.306;8.500;2023-05-31T13:28:56;46.51;13.45
9723;DHT22;4900;49.306;8.500;2023-05-31T13:31:24;46.51;13.23
9723;DHT22;4900;49.306;8.500;2023-05-31T13:33:50;46.41;13.44
9723;DHT22;4900;49.306;8.500;2023-05-31T13:36:16;46.62;13.50
9723;DHT22;4900;49.306;8.500;2023-05-31T13:38:42;46.75;13.72
9723;DHT22;4900;49.306;8.500;2023-05-31T13:41:08;46.99;13.43
9723;DHT22;4900;49.306;8.500;2023-05-31T13:43:33;46.92;13.04
9723;DHT22;4900;49.306;8.500;2023-05-31T13:45:59;46.80;12.72
9723;DHT22;4900;49.306;8.500;2023-05-31T13:48:26;47.07;12.83
9723;DHT22;4900;49.306;8.500;2023-05-31T13:50:51;47.07;12.96
9723;DHT22;4900;49.306;8.500;2023-05-31T13:53:18;46.68;12.62
9723;DHT22;4900;49.306;8.500;2023-05-31T13:55:43;47.06;12.76
9723;DHT22;4900;49.306;8.500;2023-05-31T13:58:11;47.13;13.03
9723;DHT22;4900;49.306;8.500;2023-05-31T14:00:36;47.21;13.15
9723;DHT22;4900;49.306;8.500;2023-05-31T14:03:02;47.45;13.60
9723;DHT22;4900;49.306;8.500;2023-05-31T14:05:28;47.27;13.00
9723;DHT22;4900;49.306;8.500;2023-05-31T14:07:54;46.85;12.37
9723;DHT22;4900;49.306;8.500;2023-05-31T14:10:20;46.97;12.40
9723;DHT22;4900;49.306;8.500;2023-05-31T14:12:46;46.97;12.48
9723;DHT22;4900;49.306;8.500;2023-05-31T14:15:12;46.70;12.21
9723;DHT22;4900;49.306;8.500;2023-05-31T14:17:38;46.65;12.22
9723;DHT22;4900;49.306;8.500;2023-05-31T14:20:04;46.56;12.16
9723;DHT22;4900;49.306;8.500;2023-05-31T14:22:31;46.66;12.33
9723;DHT22;4900;49.306;8.500;2023-05-31T14:24:57;46.80;12.42
9723;DHT22;4900;49.306;8.500;2023-05-31T14:27:22;47.06;12.92
9723;DHT22;4900;49.306;8.500;2023-05-31T14:29:48;47.11;12.51
9723;DHT22;4900;49.306;8.500;2023-05-31T14:32:14;47.04;13.23
9723;DHT22;4900;49.306;8.500;2023-05-31T14:34:44;47.20;13.20
9723;DHT22;4900;49.306;8.500;2023-05-31T14:37:10;46.76;12.62
9723;DHT22;4900;49.306;8.500;2023-05-31T14:39:37;46.59;12.47
9723;DHT22;4900;49.306;8.500;2023-05-31T14:42:02;46.45;12.07
9723;DHT22;4900;49.306;8.500;2023-05-31T14:44:28;46.58;12.04
9723;DHT22;4900;49.306;8.500;2023-05-31T14:46:54;46.70;12.15
9723;DHT22;4900;49.306;8.500;2023-05-31T14:49:22;47.02;12.52
9723;DHT22;4900;49.306;8.500;2023-05-31T14:51:51;46.69;12.40
9723;DHT22;4900;49.306;8.500;2023-05-31T14:54:17;46.55;12.04
9723;DHT22;4900;49.306;8.500;2023-05-31T14:56:43;46.77;12.28
9723;DHT22;4900;49.306;8.500;2023-05-31T14:59:09;46.80;12.66
9723;DHT22;4900;49.306;8.500;2023-05-31T15:01:35;46.51;12.47
9723;DHT22;4900;49.306;8.500;2023-05-31T15:04:01;46.52;12.56
9723;DHT22;4900;49.306;8.500;2023-05-31T15:06:29;46.73;12.84
9723;DHT22;4900;49.306;8.500;2023-05-31T15:08:54;46.79;12.85
9723;DHT22;4900;49.306;8.500;2023-05-31T15:11:20;46.79;12.75
9723;DHT22;4900;49.306;8.500;2023-05-31T15:13:45;47.00;12.85
9723;DHT22;4900;49.306;8.500;2023-05-31T15:16:11;46.92;12.75
9723;DHT22;4900;49.306;8.500;2023-05-31T15:18:36;47.00;12.76
9723;DHT22;4900;49.306;8.500;2023-05-31T15:21:02;47.17;12.89
9723;DHT22;4900;49.306;8.500;2023-05-31T15:23:27;47.14;12.78
9723;DHT22;4900;49.306;8.500;2023-05-31T15:25:53;47.13;12.74
9723;DHT22;4900;49.306;8.500;2023-05-31T15:28:18;47.00;12.74
9723;DHT22;4900;49.306;8.500;2023-05-31T15:30:44;46.92;12.70
9723;DHT22;4900;49.306;8.500;2023-05-31T15:33:10;46.89;13.04
9723;DHT22;4900;49.306;8.500;2023-05-31T15:35:35;46.83;12.86
9723;DHT22;4900;49.306;8.500;2023-05-31T15:38:01;46.41;12.73
9723;DHT22;4900;49.306;8.500;2023-05-31T15:40:26;45.93;12.15
9723;DHT22;4900;49.306;8.500;2023-05-31T15:42:52;46.10;12.41
9723;DHT22;4900;49.306;8.500;2023-05-31T15:45:17;46.32;13.00
9723;DHT22;4900;49.306;8.500;2023-05-31T15:47:43;46.42;13.16
9723;DHT22;4900;49.306;8.500;2023-05-31T15:50:09;46.25;13.00
9723;DHT22;4900;49.306;8.500;2023-05-31T15:52:35;46.29;13.08
9723;DHT22;4900;49.306;8.500;2023-05-31T15:55:00;46.31;13.44
9723;DHT22;4900;49.306;8.500;2023-05-31T15:57:26;46.35;13.11
9723;DHT22;4900;49.306;8.500;2023-05-31T15:59:52;46.07;12.97
9723;DHT22;4900;49.306;8.500;2023-05-31T16:02:19;46.13;13.07
9723;DHT22;4900;49.306;8.500;2023-05-31T16:04:44;46.14;13.17
9723;DHT22;4900;49.306;8.500;2023-05-31T16:07:11;46.08;13.34
9723;DHT22;4900;49.306;8.500;2023-05-31T16:09:37;46.05;13.82
9723;DHT22;4900;49.306;8.500;2023-05-31T16:12:02;45.97;13.77
9723;DHT22;4900;49.306;8.500;2023-05-31T16:14:28;45.86;13.55
9723;DHT22;4900;49.306;8.500;2023-05-31T16:16:53;45.73;13.69
9723;DHT22;4900;49.306;8.500;2023-05-31T16:19:20;45.62;13.47
9723;DHT22;4900;49.306;8.500;2023-05-31T16:21:45;45.45;13.11
9723;DHT22;4900;49.306;8.500;2023-05-31T16:24:11;45.22;12.95
9723;DHT22;4900;49.306;8.500;2023-05-31T16:26:38;45.08;13.29
9723;DHT22;4900;49.306;8.500;2023-05-31T16:29:03;44.95;13.43
9723;DHT22;4900;49.306;8.500;2023-05-31T16:31:29;44.78;13.57